sensor_id;sensor_type;location;lat;lon;timestamp;pressure;altitude;pressure_sealevel;temperature;humidity
20825;BME280;10573;50.936;6.978;2023-01-27T00:01:05;101838.63;;;4.78;78.83
20825;BME280;10573;50.936;6.978;2023-01-27T00:03:31;101835.00;;;4.61;79.18
20825;BME280;10573;50.936;6.978;2023-01-27T00:05:56;101833.50;;;4.56;78.96
20825;BME280;10573;50.936;6.978;2023-01-27T00:08:25;101834.59;;;4.51;78.66
20825;BME280;10573;50.936;6.978;2023-01-27T00:10:51;101829.59;;;4.61;78.63
20825;BME280;10573;50.936;6.978;2023-01-27T00:13:36;101839.66;;;4.58;78.14
20825;BME280;10573;50.936;6.978;2023-01-27T00:16:02;101833.31;;;4.59;78.22
20825;BME280;10573;50.936;6.978;2023-01-27T00:18:27;101837.84;;;4.76;77.65
20825;BME280;10573;50.936;6.978;2023-01-27T00:20:52;101833.47;;;4.91;77.07
20825;BME280;10573;50.936;6.978;2023-01-27T00:23:36;101841.00;;;4.84;77.12
20825;BME280;10573;50.936;6.978;2023-01-27T00:26:21;101837.53;;;4.64;77.19
20825;BME280;10573;50.936;6.978;2023-01-27T00:28:47;101839.09;;;4.68;76.87
20825;BME280;10573;50.936;6.978;2023-01-27T00:31:14;101846.66;;;4.62;77.01
20825;BME280;10573;50.936;6.978;2023-01-27T00:33:58;101852.47;;;4.72;77.11
20825;BME280;10573;50.936;6.978;2023-01-27T00:36:37;101856.75;;;4.41;77.33
20825;BME280;10573;50.936;6.978;2023-01-27T00:39:08;101852.38;;;4.56;77.48
20825;BME280;10573;50.936;6.978;2023-01-27T00:41:34;101854.69;;;4.63;77.16
20825;BME280;10573;50.936;6.978;2023-01-27T00:44:00;101847.47;;;4.46;77.34
20825;BME280;10573;50.936;6.978;2023-01-27T00:46:25;101851.44;;;4.57;77.40
20825;BME280;10573;50.936;6.978;2023-01-27T00:48:51;101853.41;;;4.53;77.28
20825;BME280;10573;50.936;6.978;2023-01-27T00:51:18;101851.50;;;4.73;76.96
20825;BME280;10573;50.936;6.978;2023-01-27T00:53:44;101845.13;;;4.74;76.84
20825;BME280;10573;50.936;6.978;2023-01-27T00:56:09;101853.09;;;4.77;76.96
20825;BME280;10573;50.936;6.978;2023-01-27T00:58:35;101849.50;;;4.76;76.51
20825;BME280;10573;50.936;6.978;2023-01-27T01:01:04;101846.41;;;4.84;76.43
20825;BME280;10573;50.936;6.978;2023-01-27T01:03:31;101851.09;;;4.80;76.10
20825;BME280;10573;50.936;6.978;2023-01-27T01:06:02;101855.63;;;4.80;75.95
20825;BME280;10573;50.936;6.978;2023-01-27T01:08:29;101855.47;;;4.83;76.01
20825;BME280;10573;50.936;6.978;2023-01-27T01:10:55;101866.09;;;4.51;77.00
20825;BME280;10573;50.936;6.978;2023-01-27T01:13:21;101868.09;;;4.47;77.47
20825;BME280;10573;50.936;6.978;2023-01-27T01:15:47;101872.78;;;4.61;77.05
20825;BME280;10573;50.936;6.978;2023-01-27T01:18:13;101871.19;;;4.57;76.93
20825;BME280;10573;50.936;6.978;2023-01-27T01:20:41;101870.72;;;4.66;77.22
20825;BME280;10573;50.936;6.978;2023-01-27T01:23:08;101872.47;;;4.67;76.61
20825;BME280;10573;50.936;6.978;2023-01-27T01:25:34;101878.81;;;4.84;76.50
20825;BME280;10573;50.936;6.978;2023-01-27T01:28:01;101878.47;;;4.73;76.15
20825;BME280;10573;50.936;6.978;2023-01-27T01:30:27;101876.28;;;4.63;75.63
20825;BME280;10573;50.936;6.978;2023-01-27T01:32:53;101885.25;;;4.64;75.93
20825;BME280;10573;50.936;6.978;2023-01-27T01:35:19;101887.56;;;4.54;76.24
20825;BME280;10573;50.936;6.978;2023-01-27T01:37:45;101892.22;;;4.85;75.96
20825;BME280;10573;50.936;6.978;2023-01-27T01:40:11;101893.72;;;4.56;75.38
20825;BME280;10573;50.936;6.978;2023-01-27T01:42:51;101892.53;;;4.44;74.89
20825;BME280;10573;50.936;6.978;2023-01-27T01:48:13;101891.28;;;4.51;73.62
20825;BME280;10573;50.936;6.978;2023-01-27T01:50:41;101891.97;;;4.73;73.25
20825;BME280;10573;50.936;6.978;2023-01-27T01:53:09;101886.44;;;4.76;73.32
20825;BME280;10573;50.936;6.978;2023-01-27T01:55:37;101890.34;;;4.87;73.13
20825;BME280;10573;50.936;6.978;2023-01-27T01:58:06;101882.81;;;4.77;72.52
20825;BME280;10573;50.936;6.978;2023-01-27T02:00:33;101883.31;;;4.83;72.99
20825;BME280;10573;50.936;6.978;2023-01-27T02:03:00;101889.63;;;4.84;73.29
20825;BME280;10573;50.936;6.978;2023-01-27T02:05:36;101884.38;;;4.63;73.56
20825;BME280;10573;50.936;6.978;2023-01-27T02:08:10;101878.19;;;4.61;73.65
20825;BME280;10573;50.936;6.978;2023-01-27T02:10:40;101886.19;;;4.63;73.31
20825;BME280;10573;50.936;6.978;2023-01-27T02:13:06;101888.34;;;4.74;73.41
20825;BME280;10573;50.936;6.978;2023-01-27T02:15:32;101883.88;;;4.90;72.86
20825;BME280;10573;50.936;6.978;2023-01-27T02:17:58;101897.94;;;4.79;73.08
20825;BME280;10573;50.936;6.978;2023-01-27T02:20:42;101886.72;;;5.04;73.13
20825;BME280;10573;50.936;6.978;2023-01-27T02:23:25;101896.13;;;4.80;72.38
20825;BME280;10573;50.936;6.978;2023-01-27T02:28:21;101895.69;;;4.52;73.69
20825;BME280;10573;50.936;6.978;2023-01-27T02:30:46;101893.06;;;4.33;74.38
20825;BME280;10573;50.936;6.978;2023-01-27T02:33:13;101897.63;;;4.50;74.52
20825;BME280;10573;50.936;6.978;2023-01-27T02:38:53;101895.78;;;4.68;74.51
20825;BME280;10573;50.936;6.978;2023-01-27T02:41:26;101896.59;;;4.53;74.74
20825;BME280;10573;50.936;6.978;2023-01-27T02:43:54;101892.31;;;4.49;74.98
20825;BME280;10573;50.936;6.978;2023-01-27T02:46:20;101895.66;;;4.89;74.43
20825;BME280;10573;50.936;6.978;2023-01-27T02:48:46;101894.22;;;4.82;73.82
20825;BME280;10573;50.936;6.978;2023-01-27T02:51:12;101899.59;;;4.47;74.37
20825;BME280;10573;50.936;6.978;2023-01-27T02:53:37;101898.72;;;4.46;74.40
20825;BME280;10573;50.936;6.978;2023-01-27T02:56:03;101899.84;;;4.60;74.02
20825;BME280;10573;50.936;6.978;2023-01-27T02:58:29;101903.53;;;4.22;74.27
20825;BME280;10573;50.936;6.978;2023-01-27T03:00:54;101898.34;;;4.72;73.81
20825;BME280;10573;50.936;6.978;2023-01-27T03:03:20;101902.25;;;4.29;73.75
20825;BME280;10573;50.936;6.978;2023-01-27T03:05:45;101899.13;;;4.56;73.20
20825;BME280;10573;50.936;6.978;2023-01-27T03:08:11;101909.91;;;4.39;73.34
20825;BME280;10573;50.936;6.978;2023-01-27T03:10:37;101905.41;;;4.20;73.67
20825;BME280;10573;50.936;6.978;2023-01-27T03:13:03;101900.53;;;4.46;73.31
20825;BME280;10573;50.936;6.978;2023-01-27T03:15:29;101904.50;;;4.39;72.89
20825;BME280;10573;50.936;6.978;2023-01-27T03:18:12;101902.16;;;4.50;73.13
20825;BME280;10573;50.936;6.978;2023-01-27T03:20:41;101904.03;;;4.48;72.74
20825;BME280;10573;50.936;6.978;2023-01-27T03:23:08;101909.63;;;4.80;71.79
20825;BME280;10573;50.936;6.978;2023-01-27T03:25:34;101898.41;;;4.52;71.57
20825;BME280;10573;50.936;6.978;2023-01-27T03:28:00;101907.22;;;4.74;71.07
20825;BME280;10573;50.936;6.978;2023-01-27T03:30:28;101906.25;;;4.40;71.39
20825;BME280;10573;50.936;6.978;2023-01-27T03:32:54;101910.28;;;4.67;72.00
20825;BME280;10573;50.936;6.978;2023-01-27T03:35:20;101913.50;;;4.57;71.44
20825;BME280;10573;50.936;6.978;2023-01-27T03:37:47;101918.06;;;4.37;71.96
20825;BME280;10573;50.936;6.978;2023-01-27T03:40:31;101912.69;;;4.37;71.61
20825;BME280;10573;50.936;6.978;2023-01-27T03:43:15;101916.59;;;4.49;71.20
20825;BME280;10573;50.936;6.978;2023-01-27T03:46:00;101914.47;;;4.56;71.14
20825;BME280;10573;50.936;6.978;2023-01-27T03:48:54;101920.22;;;4.48;71.82
20825;BME280;10573;50.936;6.978;2023-01-27T03:51:22;101915.00;;;4.45;71.69
20825;BME280;10573;50.936;6.978;2023-01-27T03:53:48;101921.25;;;4.45;71.25
20825;BME280;10573;50.936;6.978;2023-01-27T03:56:15;101927.69;;;4.43;71.53
20825;BME280;10573;50.936;6.978;2023-01-27T03:58:41;101927.16;;;4.71;71.56
20825;BME280;10573;50.936;6.978;2023-01-27T04:01:19;101924.19;;;4.41;71.63
20825;BME280;10573;50.936;6.978;2023-01-27T04:03:45;101918.34;;;4.50;71.83
20825;BME280;10573;50.936;6.978;2023-01-27T04:06:31;101918.63;;;4.44;71.90
20825;BME280;10573;50.936;6.978;2023-01-27T04:09:22;101924.88;;;4.63;71.09
20825;BME280;10573;50.936;6.978;2023-01-27T04:11:48;101919.97;;;4.35;72.29
20825;BME280;10573;50.936;6.978;2023-01-27T04:14:40;101929.88;;;4.34;72.06
20825;BME280;10573;50.936;6.978;2023-01-27T04:17:11;101921.34;;;4.44;72.70
20825;BME280;10573;50.936;6.978;2023-01-27T04:19:37;101921.19;;;4.64;72.07
20825;BME280;10573;50.936;6.978;2023-01-27T04:22:03;101918.34;;;4.50;71.80
20825;BME280;10573;50.936;6.978;2023-01-27T04:24:29;101917.44;;;4.49;72.38
20825;BME280;10573;50.936;6.978;2023-01-27T04:29:22;101920.53;;;4.42;72.40
20825;BME280;10573;50.936;6.978;2023-01-27T04:31:48;101927.72;;;4.24;73.31
20825;BME280;10573;50.936;6.978;2023-01-27T04:34:14;101921.47;;;4.23;73.20
20825;BME280;10573;50.936;6.978;2023-01-27T04:36:40;101919.63;;;4.24;73.02
20825;BME280;10573;50.936;6.978;2023-01-27T04:39:06;101922.44;;;4.40;73.03
20825;BME280;10573;50.936;6.978;2023-01-27T04:41:32;101927.69;;;4.43;73.00
20825;BME280;10573;50.936;6.978;2023-01-27T04:43:57;101925.59;;;4.30;73.20
20825;BME280;10573;50.936;6.978;2023-01-27T04:46:23;101924.13;;;4.42;73.54
20825;BME280;10573;50.936;6.978;2023-01-27T04:48:48;101924.38;;;4.73;72.59
20825;BME280;10573;50.936;6.978;2023-01-27T04:51:14;101925.50;;;4.86;72.20
20825;BME280;10573;50.936;6.978;2023-01-27T04:53:39;101926.44;;;4.50;73.04
20825;BME280;10573;50.936;6.978;2023-01-27T04:56:11;101936.59;;;4.45;73.32
20825;BME280;10573;50.936;6.978;2023-01-27T04:58:41;101933.34;;;4.56;73.04
20825;BME280;10573;50.936;6.978;2023-01-27T05:01:06;101936.13;;;4.54;73.07
20825;BME280;10573;50.936;6.978;2023-01-27T05:03:32;101939.78;;;4.70;72.62
20825;BME280;10573;50.936;6.978;2023-01-27T05:05:57;101939.81;;;4.88;72.68
20825;BME280;10573;50.936;6.978;2023-01-27T05:08:23;101939.00;;;4.86;71.87
20825;BME280;10573;50.936;6.978;2023-01-27T05:10:48;101949.75;;;4.87;71.54
20825;BME280;10573;50.936;6.978;2023-01-27T05:13:13;101954.72;;;4.78;72.25
20825;BME280;10573;50.936;6.978;2023-01-27T05:15:39;101955.44;;;4.99;71.63
20825;BME280;10573;50.936;6.978;2023-01-27T05:18:04;101952.56;;;4.84;71.87
20825;BME280;10573;50.936;6.978;2023-01-27T05:20:30;101954.16;;;4.88;71.94
20825;BME280;10573;50.936;6.978;2023-01-27T05:22:56;101957.59;;;5.10;71.28
20825;BME280;10573;50.936;6.978;2023-01-27T05:25:43;101959.81;;;4.84;71.91
20825;BME280;10573;50.936;6.978;2023-01-27T05:28:09;101957.13;;;4.84;72.24
20825;BME280;10573;50.936;6.978;2023-01-27T05:30:34;101960.00;;;4.98;71.62
20825;BME280;10573;50.936;6.978;2023-01-27T05:33:00;101957.91;;;4.86;71.82
20825;BME280;10573;50.936;6.978;2023-01-27T05:35:25;101966.25;;;4.81;72.49
20825;BME280;10573;50.936;6.978;2023-01-27T05:37:50;101957.09;;;4.66;72.57
20825;BME280;10573;50.936;6.978;2023-01-27T05:40:16;101951.47;;;4.88;72.41
20825;BME280;10573;50.936;6.978;2023-01-27T05:42:42;101959.47;;;4.90;72.35
20825;BME280;10573;50.936;6.978;2023-01-27T05:45:08;101960.59;;;4.86;72.01
20825;BME280;10573;50.936;6.978;2023-01-27T05:47:33;101962.81;;;4.95;72.22
20825;BME280;10573;50.936;6.978;2023-01-27T05:49:58;101969.31;;;4.74;72.87
20825;BME280;10573;50.936;6.978;2023-01-27T05:52:24;101975.03;;;4.67;72.99
20825;BME280;10573;50.936;6.978;2023-01-27T05:54:49;101973.19;;;4.50;72.97
20825;BME280;10573;50.936;6.978;2023-01-27T05:57:15;101978.97;;;4.60;73.04
20825;BME280;10573;50.936;6.978;2023-01-27T05:59:40;101978.69;;;4.66;72.86
20825;BME280;10573;50.936;6.978;2023-01-27T06:02:05;101982.75;;;4.93;72.43
20825;BME280;10573;50.936;6.978;2023-01-27T06:04:31;101978.84;;;4.63;72.92
20825;BME280;10573;50.936;6.978;2023-01-27T06:06:56;101984.84;;;4.51;73.13
20825;BME280;10573;50.936;6.978;2023-01-27T06:09:22;101989.44;;;4.49;73.43
20825;BME280;10573;50.936;6.978;2023-01-27T06:11:47;101980.78;;;4.79;72.85
20825;BME280;10573;50.936;6.978;2023-01-27T06:14:12;101978.06;;;4.79;72.98
20825;BME280;10573;50.936;6.978;2023-01-27T06:16:38;101985.59;;;4.72;73.38
20825;BME280;10573;50.936;6.978;2023-01-27T06:19:04;101976.47;;;4.75;73.21
20825;BME280;10573;50.936;6.978;2023-01-27T06:21:29;101974.88;;;4.70;73.58
20825;BME280;10573;50.936;6.978;2023-01-27T06:23:55;101974.91;;;4.88;72.96
20825;BME280;10573;50.936;6.978;2023-01-27T06:26:22;101978.38;;;4.90;73.16
20825;BME280;10573;50.936;6.978;2023-01-27T06:28:47;101983.16;;;4.85;72.88
20825;BME280;10573;50.936;6.978;2023-01-27T06:31:16;101983.34;;;4.63;73.40
20825;BME280;10573;50.936;6.978;2023-01-27T06:33:42;101983.94;;;4.69;73.84
20825;BME280;10573;50.936;6.978;2023-01-27T06:36:14;101983.31;;;4.99;73.40
20825;BME280;10573;50.936;6.978;2023-01-27T06:38:40;101989.66;;;4.63;73.94
20825;BME280;10573;50.936;6.978;2023-01-27T06:41:05;101991.59;;;4.96;73.38
20825;BME280;10573;50.936;6.978;2023-01-27T06:43:31;101989.78;;;5.14;72.30
20825;BME280;10573;50.936;6.978;2023-01-27T06:45:57;101991.31;;;4.83;73.08
20825;BME280;10573;50.936;6.978;2023-01-27T06:48:23;101995.63;;;4.70;73.33
20825;BME280;10573;50.936;6.978;2023-01-27T06:50:49;101997.59;;;4.66;73.85
20825;BME280;10573;50.936;6.978;2023-01-27T06:53:14;102002.13;;;4.83;73.43
20825;BME280;10573;50.936;6.978;2023-01-27T06:55:39;101996.88;;;4.80;73.16
20825;BME280;10573;50.936;6.978;2023-01-27T06:58:13;102002.34;;;4.61;73.47
20825;BME280;10573;50.936;6.978;2023-01-27T07:00:39;101996.81;;;4.99;73.05
20825;BME280;10573;50.936;6.978;2023-01-27T07:03:05;102003.59;;;4.91;72.45
20825;BME280;10573;50.936;6.978;2023-01-27T07:05:31;102002.91;;;4.68;72.75
20825;BME280;10573;50.936;6.978;2023-01-27T07:07:57;102008.19;;;4.52;73.92
20825;BME280;10573;50.936;6.978;2023-01-27T07:10:23;102013.63;;;4.69;73.09
20825;BME280;10573;50.936;6.978;2023-01-27T07:12:49;102012.19;;;4.62;73.47
20825;BME280;10573;50.936;6.978;2023-01-27T07:15:14;102013.03;;;4.99;72.11
20825;BME280;10573;50.936;6.978;2023-01-27T07:17:40;102013.34;;;4.76;72.39
20825;BME280;10573;50.936;6.978;2023-01-27T07:20:07;102007.28;;;4.70;72.43
20825;BME280;10573;50.936;6.978;2023-01-27T07:22:34;102007.13;;;4.74;72.29
20825;BME280;10573;50.936;6.978;2023-01-27T07:25:00;102015.69;;;5.01;71.45
20825;BME280;10573;50.936;6.978;2023-01-27T07:27:26;102014.56;;;4.68;72.25
20825;BME280;10573;50.936;6.978;2023-01-27T07:29:52;102016.56;;;5.19;71.09
20825;BME280;10573;50.936;6.978;2023-01-27T07:32:18;102019.53;;;4.95;71.87
20825;BME280;10573;50.936;6.978;2023-01-27T07:34:43;102019.25;;;5.19;71.16
20825;BME280;10573;50.936;6.978;2023-01-27T07:37:09;102016.38;;;5.04;70.57
20825;BME280;10573;50.936;6.978;2023-01-27T07:39:35;102025.75;;;4.97;71.38
20825;BME280;10573;50.936;6.978;2023-01-27T07:42:02;102034.41;;;5.04;71.21
20825;BME280;10573;50.936;6.978;2023-01-27T07:44:27;102028.78;;;5.26;70.98
20825;BME280;10573;50.936;6.978;2023-01-27T07:46:53;102037.22;;;4.83;71.51
20825;BME280;10573;50.936;6.978;2023-01-27T07:49:18;102037.34;;;5.17;71.31
20825;BME280;10573;50.936;6.978;2023-01-27T07:51:44;102031.56;;;4.70;71.81
20825;BME280;10573;50.936;6.978;2023-01-27T07:54:10;102039.19;;;4.99;71.83
20825;BME280;10573;50.936;6.978;2023-01-27T07:56:36;102036.31;;;4.65;71.90
20825;BME280;10573;50.936;6.978;2023-01-27T07:59:01;102045.03;;;4.90;71.94
20825;BME280;10573;50.936;6.978;2023-01-27T08:01:27;102045.59;;;4.96;71.71
20825;BME280;10573;50.936;6.978;2023-01-27T08:03:52;102040.81;;;4.84;72.05
20825;BME280;10573;50.936;6.978;2023-01-27T08:06:18;102035.81;;;4.94;71.60
20825;BME280;10573;50.936;6.978;2023-01-27T08:08:43;102044.19;;;5.07;71.77
20825;BME280;10573;50.936;6.978;2023-01-27T08:11:12;102040.41;;;5.28;70.31
20825;BME280;10573;50.936;6.978;2023-01-27T08:13:38;102048.25;;;5.15;70.99
20825;BME280;10573;50.936;6.978;2023-01-27T08:16:05;102052.41;;;4.86;71.50
20825;BME280;10573;50.936;6.978;2023-01-27T08:18:32;102053.91;;;5.11;70.99
20825;BME280;10573;50.936;6.978;2023-01-27T08:20:59;102050.94;;;5.15;70.84
20825;BME280;10573;50.936;6.978;2023-01-27T08:23:25;102052.78;;;5.15;70.88
20825;BME280;10573;50.936;6.978;2023-01-27T08:26:01;102056.91;;;5.22;70.54
20825;BME280;10573;50.936;6.978;2023-01-27T08:28:28;102050.47;;;5.42;70.50
20825;BME280;10573;50.936;6.978;2023-01-27T08:31:02;102061.03;;;5.82;69.70
20825;BME280;10573;50.936;6.978;2023-01-27T08:33:28;102049.44;;;5.27;70.06
20825;BME280;10573;50.936;6.978;2023-01-27T08:35:53;102050.34;;;5.63;69.86
20825;BME280;10573;50.936;6.978;2023-01-27T08:38:19;102055.81;;;5.44;69.71
20825;BME280;10573;50.936;6.978;2023-01-27T08:40:45;102051.09;;;5.82;69.31
20825;BME280;10573;50.936;6.978;2023-01-27T08:43:12;102054.09;;;5.94;68.75
20825;BME280;10573;50.936;6.978;2023-01-27T08:45:39;102050.56;;;6.09;68.30
20825;BME280;10573;50.936;6.978;2023-01-27T08:48:05;102052.88;;;5.66;69.43
20825;BME280;10573;50.936;6.978;2023-01-27T08:50:31;102053.47;;;6.06;68.48
20825;BME280;10573;50.936;6.978;2023-01-27T08:52:57;102050.00;;;6.36;67.99
20825;BME280;10573;50.936;6.978;2023-01-27T08:55:27;102053.94;;;6.30;67.67
20825;BME280;10573;50.936;6.978;2023-01-27T08:57:53;102054.50;;;6.03;68.01
20825;BME280;10573;50.936;6.978;2023-01-27T09:00:19;102047.41;;;6.34;67.98
20825;BME280;10573;50.936;6.978;2023-01-27T09:02:45;102049.47;;;6.29;67.82
20825;BME280;10573;50.936;6.978;2023-01-27T09:05:10;102047.94;;;6.57;67.05
20825;BME280;10573;50.936;6.978;2023-01-27T09:07:36;102046.19;;;6.56;66.34
20825;BME280;10573;50.936;6.978;2023-01-27T09:10:02;102047.22;;;6.85;66.69
20825;BME280;10573;50.936;6.978;2023-01-27T09:12:28;102047.00;;;7.04;66.32
20825;BME280;10573;50.936;6.978;2023-01-27T09:14:54;102048.75;;;7.05;65.28
20825;BME280;10573;50.936;6.978;2023-01-27T09:17:23;102049.91;;;7.01;65.22
20825;BME280;10573;50.936;6.978;2023-01-27T09:19:48;102054.19;;;7.05;65.66
20825;BME280;10573;50.936;6.978;2023-01-27T09:22:13;102060.16;;;6.64;66.43
20825;BME280;10573;50.936;6.978;2023-01-27T09:24:39;102046.38;;;5.86;67.67
20825;BME280;10573;50.936;6.978;2023-01-27T09:27:04;102056.22;;;6.38;67.58
20825;BME280;10573;50.936;6.978;2023-01-27T09:29:30;102059.09;;;6.35;67.55
20825;BME280;10573;50.936;6.978;2023-01-27T09:31:55;102065.53;;;6.16;68.22
20825;BME280;10573;50.936;6.978;2023-01-27T09:34:21;102064.69;;;6.32;67.84
20825;BME280;10573;50.936;6.978;2023-01-27T09:36:48;102064.41;;;6.36;67.33
20825;BME280;10573;50.936;6.978;2023-01-27T09:39:17;102069.59;;;6.57;67.06
20825;BME280;10573;50.936;6.978;2023-01-27T09:42:11;102055.34;;;6.85;66.67
20825;BME280;10573;50.936;6.978;2023-01-27T09:44:53;102079.53;;;6.57;66.02
20825;BME280;10573;50.936;6.978;2023-01-27T09:53:18;102082.88;;;6.78;65.82
20825;BME280;10573;50.936;6.978;2023-01-27T09:56:07;102090.06;;;7.25;65.02
20825;BME280;10573;50.936;6.978;2023-01-27T10:12:44;102105.25;;;6.97;66.02
20825;BME280;10573;50.936;6.978;2023-01-27T10:15:35;102105.41;;;6.94;66.21
20825;BME280;10573;50.936;6.978;2023-01-27T10:23:55;102105.63;;;7.37;64.87
20825;BME280;10573;50.936;6.978;2023-01-27T10:26:38;102108.44;;;7.36;64.42
20825;BME280;10573;50.936;6.978;2023-01-27T10:29:43;102107.59;;;7.50;63.99
20825;BME280;10573;50.936;6.978;2023-01-27T10:32:25;102105.75;;;7.81;63.45
20825;BME280;10573;50.936;6.978;2023-01-27T10:35:07;102111.69;;;7.57;63.81
20825;BME280;10573;50.936;6.978;2023-01-27T10:37:50;102108.19;;;8.00;63.14
20825;BME280;10573;50.936;6.978;2023-01-27T10:43:15;102105.28;;;7.28;64.52
20825;BME280;10573;50.936;6.978;2023-01-27T10:46:23;102116.69;;;7.49;64.19
20825;BME280;10573;50.936;6.978;2023-01-27T10:49:24;102114.03;;;7.01;64.87
20825;BME280;10573;50.936;6.978;2023-01-27T10:52:23;102106.41;;;7.23;64.83
20825;BME280;10573;50.936;6.978;2023-01-27T10:55:02;102106.28;;;6.79;65.49
20825;BME280;10573;50.936;6.978;2023-01-27T10:57:36;102100.31;;;7.36;64.49
20825;BME280;10573;50.936;6.978;2023-01-27T11:05:39;102102.06;;;7.21;65.18
20825;BME280;10573;50.936;6.978;2023-01-27T11:08:11;102100.50;;;7.78;63.40
20825;BME280;10573;50.936;6.978;2023-01-27T11:10:44;102106.31;;;7.71;62.94
20825;BME280;10573;50.936;6.978;2023-01-27T11:13:30;102104.34;;;7.59;63.05
20825;BME280;10573;50.936;6.978;2023-01-27T11:15:58;102106.63;;;7.96;62.53
20825;BME280;10573;50.936;6.978;2023-01-27T11:18:26;102099.84;;;8.03;61.91
20825;BME280;10573;50.936;6.978;2023-01-27T11:20:56;102095.41;;;8.16;61.86
20825;BME280;10573;50.936;6.978;2023-01-27T11:23:32;102092.00;;;7.98;61.80
20825;BME280;10573;50.936;6.978;2023-01-27T11:31:46;102086.59;;;7.98;61.67
20825;BME280;10573;50.936;6.978;2023-01-27T11:36:43;102078.25;;;8.45;60.86
20825;BME280;10573;50.936;6.978;2023-01-27T11:39:10;102076.22;;;8.05;61.30
20825;BME280;10573;50.936;6.978;2023-01-27T11:41:38;102069.72;;;8.51;61.15
20825;BME280;10573;50.936;6.978;2023-01-27T11:44:12;102076.69;;;8.40;60.32
20825;BME280;10573;50.936;6.978;2023-01-27T11:46:42;102074.16;;;8.23;60.70
20825;BME280;10573;50.936;6.978;2023-01-27T11:49:09;102069.94;;;7.60;61.22
20825;BME280;10573;50.936;6.978;2023-01-27T11:51:38;102074.38;;;7.46;62.29
20825;BME280;10573;50.936;6.978;2023-01-27T11:54:24;102073.06;;;7.68;62.17
20825;BME280;10573;50.936;6.978;2023-01-27T11:56:52;102067.75;;;7.36;63.46
20825;BME280;10573;50.936;6.978;2023-01-27T11:59:24;102070.28;;;7.84;62.44
20825;BME280;10573;50.936;6.978;2023-01-27T12:02:16;102069.31;;;7.85;62.46
20825;BME280;10573;50.936;6.978;2023-01-27T12:05:08;102064.09;;;8.11;61.61
20825;BME280;10573;50.936;6.978;2023-01-27T12:07:51;102061.97;;;8.16;61.21
20825;BME280;10573;50.936;6.978;2023-01-27T12:12:50;102058.59;;;7.98;61.78
20825;BME280;10573;50.936;6.978;2023-01-27T12:15:17;102050.50;;;7.96;61.63
20825;BME280;10573;50.936;6.978;2023-01-27T12:17:48;102057.50;;;8.29;61.50
20825;BME280;10573;50.936;6.978;2023-01-27T12:22:59;102056.72;;;8.27;61.69
20825;BME280;10573;50.936;6.978;2023-01-27T12:25:30;102050.72;;;8.07;60.86
20825;BME280;10573;50.936;6.978;2023-01-27T12:28:03;102048.00;;;7.93;59.24
20825;BME280;10573;50.936;6.978;2023-01-27T12:30:33;102045.09;;;7.82;59.05
20825;BME280;10573;50.936;6.978;2023-01-27T12:33:11;102053.25;;;7.82;59.35
20825;BME280;10573;50.936;6.978;2023-01-27T12:35:38;102042.22;;;8.14;59.03
20825;BME280;10573;50.936;6.978;2023-01-27T12:38:13;102048.78;;;8.10;58.42
20825;BME280;10573;50.936;6.978;2023-01-27T12:40:44;102044.72;;;8.02;59.21
20825;BME280;10573;50.936;6.978;2023-01-27T12:43:15;102044.06;;;7.54;59.87
20825;BME280;10573;50.936;6.978;2023-01-27T12:45:42;102046.75;;;7.39;60.18
20825;BME280;10573;50.936;6.978;2023-01-27T12:53:13;102035.59;;;8.03;59.01
20825;BME280;10573;50.936;6.978;2023-01-27T13:00:56;102020.00;;;7.78;59.70
20825;BME280;10573;50.936;6.978;2023-01-27T13:03:23;102027.03;;;7.66;59.63
20825;BME280;10573;50.936;6.978;2023-01-27T13:05:52;102025.50;;;7.77;60.15
20825;BME280;10573;50.936;6.978;2023-01-27T13:08:20;102029.34;;;7.58;60.46
20825;BME280;10573;50.936;6.978;2023-01-27T13:10:58;102036.09;;;7.36;60.59
20825;BME280;10573;50.936;6.978;2023-01-27T13:13:26;102037.66;;;7.41;61.09
20825;BME280;10573;50.936;6.978;2023-01-27T13:16:13;102036.59;;;7.43;61.02
20825;BME280;10573;50.936;6.978;2023-01-27T13:18:40;102033.91;;;7.58;60.84
20825;BME280;10573;50.936;6.978;2023-01-27T13:21:15;102037.28;;;7.61;60.24
20825;BME280;10573;50.936;6.978;2023-01-27T13:23:44;102039.47;;;7.85;59.85
20825;BME280;10573;50.936;6.978;2023-01-27T13:26:16;102037.38;;;7.15;60.90
20825;BME280;10573;50.936;6.978;2023-01-27T13:28:51;102037.28;;;7.61;60.45
20825;BME280;10573;50.936;6.978;2023-01-27T13:36:39;102049.47;;;7.39;62.08
20825;BME280;10573;50.936;6.978;2023-01-27T13:39:16;102047.91;;;7.35;62.07
20825;BME280;10573;50.936;6.978;2023-01-27T13:41:48;102057.94;;;7.49;62.37
20825;BME280;10573;50.936;6.978;2023-01-27T13:44:36;102054.69;;;7.12;62.90
20825;BME280;10573;50.936;6.978;2023-01-27T13:47:11;102067.13;;;7.00;63.38
20825;BME280;10573;50.936;6.978;2023-01-27T13:49:42;102070.28;;;6.45;64.01
20825;BME280;10573;50.936;6.978;2023-01-27T13:52:10;102073.59;;;6.82;62.80
20825;BME280;10573;50.936;6.978;2023-01-27T13:54:36;102072.31;;;6.57;63.30
20825;BME280;10573;50.936;6.978;2023-01-27T14:03:15;102066.88;;;6.89;63.32
20825;BME280;10573;50.936;6.978;2023-01-27T14:06:07;102065.78;;;7.08;63.49
20825;BME280;10573;50.936;6.978;2023-01-27T14:09:03;102075.03;;;6.73;64.19
20825;BME280;10573;50.936;6.978;2023-01-27T14:12:08;102075.06;;;7.03;63.25
20825;BME280;10573;50.936;6.978;2023-01-27T14:28:07;102098.75;;;6.52;64.61
20825;BME280;10573;50.936;6.978;2023-01-27T14:30:40;102082.53;;;7.00;63.27
20825;BME280;10573;50.936;6.978;2023-01-27T14:36:31;102083.72;;;6.94;62.89
20825;BME280;10573;50.936;6.978;2023-01-27T14:39:19;102083.66;;;7.42;62.32
20825;BME280;10573;50.936;6.978;2023-01-27T14:42:06;102084.59;;;9.42;57.52
20825;BME280;10573;50.936;6.978;2023-01-27T14:47:42;102083.81;;;10.44;52.95
20825;BME280;10573;50.936;6.978;2023-01-27T14:50:27;102084.16;;;10.39;52.56
20825;BME280;10573;50.936;6.978;2023-01-27T14:55:34;102104.16;;;9.06;55.82
20825;BME280;10573;50.936;6.978;2023-01-27T14:58:15;102092.53;;;8.48;57.98